Terminal Aerodrome Forecast
Issued by NWS

Home | Current Version | Previous Version | Text Only | Print | Product List | Glossary On
Versions: 1 2 3 4 5 6 7 8 9 10 11 12 13 14 15 16 17 18 19 20 21 22 23 24 25 26 27 28 29 30 31
099
FTUS46 KEKA 061159
TAFCEC
TAF
KCEC 061159Z 0612/0712 35008KT 4SM BR SCT004 BKN120 OVC250
      TEMPO 0614/0616 6SM BR SCT007 BKN120 BKN250
     FM061600 34008KT P6SM SCT010 BKN120 BKN250
     FM061800 34012G22KT 6SM HZ SCT015 BKN120 BKN250
     FM062100 34015G25KT 6SM HZ SCT015 BKN250
     FM070500 35008G16KT 6SM BR BKN010=

USA.gov is the U.S. government's official web portal to all federal, state and local government web resources and services.